Ashcamp, Kentucky
Current Conditions -  °F | °C
As of 4:35 AM on Thursday 18 Dec 2014 (Local Time) from KLNP Reporting Station
Overcast Overcast  
Wind Chill: 28°   Ceiling: 800
Heat Index: 28°   Visibility: 10mi
Dew Point: 27°   Wind: 3mph
Humidity: 93%   Direction: 310°NW
Pressure: 30.15"   Gusts: NA
Location:  37.27°N, 82.43°W
Report Text: KLNP 180935Z AUTO 31003KT 10SM OVC008 M02/M03 A3015 RMK AO2
Loading
Personal Weather Stations






























Interactive Weather Map New forecast layout! Learn more

10-Day Weather Forecast

Advertisements
Track Severe Weather on mobile